TimePDT,TemperatureF,Dew PointF,Humidity,Sea Level PressureIn,VisibilityMPH,Wind Direction,Wind SpeedMPH,Gust SpeedMPH,PrecipitationIn,Events,Conditions,WindDirDegrees,DateUTC
12:31 AM,66.2,57.2,73,29.93,10.0,SW,4.6,-,N/A,,Overcast,220,2013-07-29 07:31:00
12:53 AM,66.0,57.0,73,29.92,10.0,SSW,3.5,-,N/A,,Overcast,210,2013-07-29 07:53:00
1:53 AM,66.0,57.0,73,29.92,10.0,SSW,4.6,-,N/A,,Overcast,200,2013-07-29 08:53:00
2:53 AM,66.0,57.0,73,29.91,10.0,SSW,5.8,-,N/A,,Overcast,210,2013-07-29 09:53:00
3:53 AM,66.0,55.9,70,29.92,10.0,South,5.8,-,N/A,,Overcast,190,2013-07-29 10:53:00
4:53 AM,64.9,55.9,73,29.93,10.0,SSW,3.5,-,N/A,,Overcast,200,2013-07-29 11:53:00
5:53 AM,66.0,55.9,70,29.94,10.0,SW,5.8,-,N/A,,Mostly Cloudy,230,2013-07-29 12:53:00
6:53 AM,66.0,55.0,68,29.95,10.0,Calm,Calm,-,N/A,,Overcast,0,2013-07-29 13:53:00
7:53 AM,66.9,55.0,66,29.97,10.0,Calm,Calm,-,N/A,,Mostly Cloudy,0,2013-07-29 14:53:00
8:53 AM,69.1,55.9,63,29.98,10.0,Variable,4.6,-,N/A,,Mostly Cloudy,0,2013-07-29 15:53:00
9:40 AM,69.8,55.4,60,29.99,10.0,Calm,Calm,-,N/A,,Scattered Clouds,0,2013-07-29 16:40:00
9:53 AM,70.0,55.9,61,29.99,10.0,West,3.5,-,N/A,,Partly Cloudy,280,2013-07-29 16:53:00
10:53 AM,72.0,55.9,57,30.00,10.0,SW,8.1,-,N/A,,Partly Cloudy,220,2013-07-29 17:53:00
11:53 AM,73.0,57.0,57,30.00,10.0,SSW,9.2,-,N/A,,Partly Cloudy,210,2013-07-29 18:53:00
12:53 PM,73.9,57.0,55,30.01,10.0,SSW,10.4,-,N/A,,Clear,200,2013-07-29 19:53:00
1:53 PM,75.0,57.0,53,30.00,10.0,South,12.7,-,N/A,,Clear,190,2013-07-29 20:53:00
2:53 PM,75.0,55.9,51,29.99,10.0,SW,8.1,16.1,N/A,,Clear,220,2013-07-29 21:53:00
3:53 PM,75.9,55.9,50,29.97,10.0,WSW,6.9,-,N/A,,Clear,240,2013-07-29 22:53:00
4:53 PM,73.9,57.0,55,29.97,10.0,SSW,10.4,-,N/A,,Clear,210,2013-07-29 23:53:00
5:53 PM,72.0,57.0,59,29.96,10.0,SW,8.1,-,N/A,,Clear,230,2013-07-30 00:53:00
6:53 PM,70.0,57.0,63,29.97,10.0,SW,6.9,-,N/A,,Clear,220,2013-07-30 01:53:00
7:53 PM,69.1,55.9,63,29.99,10.0,SW,8.1,-,N/A,,Partly Cloudy,220,2013-07-30 02:53:00
8:53 PM,66.9,55.9,68,30.01,10.0,West,4.6,-,N/A,,Partly Cloudy,260,2013-07-30 03:53:00
9:53 PM,66.9,55.9,68,30.03,10.0,West,3.5,-,N/A,,Partly Cloudy,260,2013-07-30 04:53:00
10:53 PM,66.0,55.0,68,30.03,10.0,West,3.5,-,N/A,,Partly Cloudy,270,2013-07-30 05:53:00
11:53 PM,66.0,55.0,68,30.04,10.0,SW,3.5,-,N/A,,Clear,230,2013-07-30 06:53:00